Airfield :
LOGIN :

Register | Disclaimer

   EN    FR    IT 

 










Legend :    VFR   Marginal VFR   IFR   Intensive IFR   Very Intensive IFR
Visi :
Ceiling :
>= 8 km
>= 3000ft
5 to 8 km
1000 to 3000 ft
1500m to 5 km
500 to 1000 ft
800 to 1500m
200 to 500 ft
< 800m
< 200 ft
Symbols :   Thunderstorms  Fog  Heavy snow  Heavy precipitations  Wind > 20 kt
SIGMETs :     Misc.  Thunderstorms  Icing  Turbulence  Mountain Waves  Volcanic Ashes






- Airport Elevation : 788 ft
- IATA code : DCM


LFCK - Castres-Mazamet

CURRENT METAR :
  • 250000Z AUTO 00000KT CAVOK 05/04 Q1021

EXPIRED METARs :
  • 242330Z AUTO VRB02KT CAVOK 05/04 Q1021
  • 242300Z AUTO VRB01KT CAVOK 06/05 Q1021
  • 242230Z AUTO 13001KT CAVOK 06/04 Q1022
  • 242200Z AUTO 00000KT CAVOK 06/04 Q1022 TEMPO 3000 BR BKN008
  • 242130Z AUTO VRB01KT CAVOK 07/05 Q1022 TEMPO 3000 BR BKN008

TAF TAF LFCK
Valid from the 24 at 18:00 until the 25 at 03:00 UTC


241700Z 2418/2503 30006KT CAVOK
TEMPO 2418/2421 VRB03KT
TEMPO 2420/2424 3000 BR
BECMG 2421/2423 BKN013
TEMPO 2422/2503 BKN008



MET'MAP, your aeronautical weather chart ! - Copyright ORBIFLY December 2007 - Disclaimer

ORBIFLY MET'MAP TEAM :

Programming & Development : Alexandra Zaïnal
Concept & original design : Baudouin d'Aumeries
Assistance for programming : Marc-Olivier Méhu
Technical & hardware support : Manuel Goepfert

Contact : metmap@orbifly.com




SOURCES & CREDITS :

   NOAA